Huvudsida
METAR-TAF:

METAR-TAF

Flygplatser :

Port Moresby, Papua Nya Guinea

latitud: 09-26S, longitud: 147-13E, höjd: 38 m

Aktuellt väderrapport

Denna rapport gjordes för 18 minuter sedan, klockan 06:00 UTC
Vind 15 kt från sydost i byarna ända upp till 25 kt
Temperatur 30°C
Fuktighet 79%
Tryck 1007 hPa
Sikt 10 km eller mer
Spridda moln på en höjd av 3500 ft

METAR: AYPY 220600Z 14015G25KTS 9999 SCT035 30/26 Q1007 RMK: BUILD UPS NW TO E

Tid: 16:18 (06:18 UTC)

Väderprognos

Denna rapport gjordes för 4 timmar och 43 minuter sedan, klockan 01:35 UTC
Prognos gäller från 22 kl. 06 UTC till 23 kl. 06 UTC
Vind 12 kt från syd
Sikt 10 km eller mer
Spridda moln på en höjd av 2000 ft
Brutna moln på en höjd av 14000 ft
Från 22 kl. 1000 UTC
Vind 6 kt från syd
Sikt 10 km eller mer
Brutna moln på en höjd av 3500 ft

TAF: AYPY 220135Z 2206/2306 17012KT 9999 SCT020 BKN140 FM221000 17006KT 9999 -R ADZ Z BKN035

Aktuella väderrapporter och prognoser från 4000 flygplatser (METAR- och TAF-rapporter).

De tillgängliga stationerna syns som gula och röda prickar på kartan.

För musen över prickarna för att se namnen på stationerna.

Klicka sedan för att få väderrapporter och prognoser.

För att ändra kartan: Klicka på de gröna knapparna med ett svart kors på för att zooma in; den gröna knappen med ett streck på för att zooma ut; eller på de gröna pilarna för angränsande kartor.


METAR-TAF: